sensor_id;sensor_type;location;lat;lon;timestamp;pressure;altitude;pressure_sealevel;temperature;humidity
49567;BME280;35472;50.514;30.448;2022-09-28T00:03:43;98504.66;;;13.16;100.00
49567;BME280;35472;50.514;30.448;2022-09-28T00:06:10;98504.53;;;13.21;100.00
49567;BME280;35472;50.514;30.448;2022-09-28T00:08:36;98507.13;;;13.64;100.00
49567;BME280;35472;50.514;30.448;2022-09-28T00:11:04;98505.53;;;13.63;100.00
49567;BME280;35472;50.514;30.448;2022-09-28T00:13:29;98521.66;;;13.94;100.00
49567;BME280;35472;50.514;30.448;2022-09-28T00:16:09;98526.31;;;14.03;100.00
49567;BME280;35472;50.514;30.448;2022-09-28T00:18:34;98528.25;;;14.02;100.00
49567;BME280;35472;50.514;30.448;2022-09-28T00:21:06;98528.28;;;14.23;100.00
49567;BME280;35472;50.514;30.448;2022-09-28T00:23:33;98527.06;;;14.12;100.00
49567;BME280;35472;50.514;30.448;2022-09-28T00:26:05;98528.63;;;14.21;100.00
49567;BME280;35472;50.514;30.448;2022-09-28T00:28:30;98531.16;;;14.27;100.00
49567;BME280;35472;50.514;30.448;2022-09-28T00:30:57;98527.56;;;14.35;100.00
49567;BME280;35472;50.514;30.448;2022-09-28T00:33:23;98541.63;;;14.33;100.00
49567;BME280;35472;50.514;30.448;2022-09-28T00:35:58;98540.72;;;14.20;100.00
49567;BME280;35472;50.514;30.448;2022-09-28T00:38:27;98537.97;;;13.91;100.00
49567;BME280;35472;50.514;30.448;2022-09-28T00:40:53;98526.06;;;14.16;100.00
49567;BME280;35472;50.514;30.448;2022-09-28T00:43:21;98520.81;;;14.03;100.00
49567;BME280;35472;50.514;30.448;2022-09-28T00:45:59;98515.59;;;13.80;100.00
49567;BME280;35472;50.514;30.448;2022-09-28T00:48:28;98504.91;;;13.58;100.00
49567;BME280;35472;50.514;30.448;2022-09-28T00:50:58;98506.72;;;13.45;100.00
49567;BME280;35472;50.514;30.448;2022-09-28T00:53:29;98502.88;;;13.76;100.00
49567;BME280;35472;50.514;30.448;2022-09-28T00:55:58;98507.66;;;13.87;100.00
49567;BME280;35472;50.514;30.448;2022-09-28T00:58:34;98504.91;;;13.96;100.00
49567;BME280;35472;50.514;30.448;2022-09-28T01:01:01;98498.22;;;13.76;100.00
49567;BME280;35472;50.514;30.448;2022-09-28T01:03:28;98510.81;;;13.77;100.00
49567;BME280;35472;50.514;30.448;2022-09-28T01:05:57;98511.88;;;13.85;100.00
49567;BME280;35472;50.514;30.448;2022-09-28T01:08:25;98509.16;;;13.76;100.00
49567;BME280;35472;50.514;30.448;2022-09-28T01:10:52;98505.22;;;13.94;100.00
49567;BME280;35472;50.514;30.448;2022-09-28T01:13:19;98504.03;;;14.04;100.00
49567;BME280;35472;50.514;30.448;2022-09-28T01:16:07;98505.97;;;14.04;100.00
49567;BME280;35472;50.514;30.448;2022-09-28T01:21:37;98499.44;;;14.17;100.00
49567;BME280;35472;50.514;30.448;2022-09-28T01:24:20;98501.84;;;14.18;100.00
49567;BME280;35472;50.514;30.448;2022-09-28T01:29:24;98502.66;;;14.19;100.00
49567;BME280;35472;50.514;30.448;2022-09-28T01:32:21;98503.41;;;13.99;100.00
49567;BME280;35472;50.514;30.448;2022-09-28T01:34:56;98502.78;;;14.02;100.00
49567;BME280;35472;50.514;30.448;2022-09-28T01:37:30;98499.28;;;14.13;100.00
49567;BME280;35472;50.514;30.448;2022-09-28T01:40:00;98507.59;;;14.26;100.00
49567;BME280;35472;50.514;30.448;2022-09-28T01:42:30;98508.69;;;14.33;100.00
49567;BME280;35472;50.514;30.448;2022-09-28T01:45:03;98499.69;;;14.03;100.00
49567;BME280;35472;50.514;30.448;2022-09-28T01:47:32;98506.88;;;14.16;100.00
49567;BME280;35472;50.514;30.448;2022-09-28T01:50:09;98503.44;;;14.19;100.00
49567;BME280;35472;50.514;30.448;2022-09-28T01:52:43;98504.06;;;14.25;100.00
49567;BME280;35472;50.514;30.448;2022-09-28T01:55:16;98495.75;;;14.13;100.00
49567;BME280;35472;50.514;30.448;2022-09-28T01:57:50;98498.00;;;13.90;100.00
49567;BME280;35472;50.514;30.448;2022-09-28T02:00:20;98494.09;;;13.61;100.00
49567;BME280;35472;50.514;30.448;2022-09-28T02:03:04;98507.22;;;13.77;100.00
49567;BME280;35472;50.514;30.448;2022-09-28T02:05:44;98500.50;;;14.04;100.00
49567;BME280;35472;50.514;30.448;2022-09-28T02:10:53;98494.03;;;14.29;100.00
49567;BME280;35472;50.514;30.448;2022-09-28T02:13:28;98500.84;;;14.23;100.00
49567;BME280;35472;50.514;30.448;2022-09-28T02:18:20;98503.06;;;14.30;100.00
49567;BME280;35472;50.514;30.448;2022-09-28T02:20:51;98515.03;;;14.25;100.00
49567;BME280;35472;50.514;30.448;2022-09-28T02:23:22;98501.31;;;14.25;100.00
49567;BME280;35472;50.514;30.448;2022-09-28T02:25:52;98502.53;;;14.15;100.00
49567;BME280;35472;50.514;30.448;2022-09-28T02:28:20;98500.50;;;14.25;100.00
49567;BME280;35472;50.514;30.448;2022-09-28T02:30:45;98499.97;;;14.31;100.00
49567;BME280;35472;50.514;30.448;2022-09-28T02:33:17;98496.44;;;14.31;100.00
49567;BME280;35472;50.514;30.448;2022-09-28T02:35:44;98495.91;;;14.16;100.00
49567;BME280;35472;50.514;30.448;2022-09-28T02:38:11;98514.94;;;14.13;100.00
49567;BME280;35472;50.514;30.448;2022-09-28T02:40:38;98504.84;;;14.05;100.00
49567;BME280;35472;50.514;30.448;2022-09-28T02:43:22;98498.94;;;13.94;100.00
49567;BME280;35472;50.514;30.448;2022-09-28T02:46:00;98497.41;;;14.05;100.00
49567;BME280;35472;50.514;30.448;2022-09-28T02:51:30;98505.16;;;13.74;100.00
49567;BME280;35472;50.514;30.448;2022-09-28T02:57:12;98508.75;;;13.95;100.00
49567;BME280;35472;50.514;30.448;2022-09-28T02:59:55;98512.53;;;14.11;100.00
49567;BME280;35472;50.514;30.448;2022-09-28T03:05:22;98511.59;;;14.07;100.00
49567;BME280;35472;50.514;30.448;2022-09-28T03:10:55;98511.66;;;14.19;100.00
49567;BME280;35472;50.514;30.448;2022-09-28T03:13:23;98507.03;;;14.20;100.00
49567;BME280;35472;50.514;30.448;2022-09-28T03:15:50;98504.59;;;14.18;100.00
49567;BME280;35472;50.514;30.448;2022-09-28T03:18:16;98506.25;;;14.11;100.00
49567;BME280;35472;50.514;30.448;2022-09-28T03:20:42;98505.63;;;14.05;100.00
49567;BME280;35472;50.514;30.448;2022-09-28T03:23:07;98508.53;;;14.09;100.00
49567;BME280;35472;50.514;30.448;2022-09-28T03:25:32;98511.66;;;13.99;100.00
49567;BME280;35472;50.514;30.448;2022-09-28T03:27:58;98505.31;;;14.07;100.00
49567;BME280;35472;50.514;30.448;2022-09-28T03:30:24;98509.69;;;14.08;100.00
49567;BME280;35472;50.514;30.448;2022-09-28T03:32:57;98515.34;;;14.03;100.00
49567;BME280;35472;50.514;30.448;2022-09-28T03:35:24;98505.69;;;13.97;100.00
49567;BME280;35472;50.514;30.448;2022-09-28T03:37:53;98507.06;;;13.82;100.00
49567;BME280;35472;50.514;30.448;2022-09-28T03:40:19;98508.19;;;14.10;100.00
49567;BME280;35472;50.514;30.448;2022-09-28T03:42:44;98506.88;;;14.16;100.00
49567;BME280;35472;50.514;30.448;2022-09-28T03:45:10;98502.97;;;14.17;100.00
49567;BME280;35472;50.514;30.448;2022-09-28T03:47:35;98512.28;;;14.25;100.00
49567;BME280;35472;50.514;30.448;2022-09-28T03:50:01;98512.63;;;14.23;100.00
49567;BME280;35472;50.514;30.448;2022-09-28T03:52:26;98503.53;;;14.32;100.00
49567;BME280;35472;50.514;30.448;2022-09-28T03:54:52;98510.94;;;14.31;100.00
49567;BME280;35472;50.514;30.448;2022-09-28T03:57:17;98515.03;;;14.25;100.00
49567;BME280;35472;50.514;30.448;2022-09-28T03:59:43;98514.72;;;13.97;100.00
49567;BME280;35472;50.514;30.448;2022-09-28T04:02:08;98516.28;;;13.77;100.00
49567;BME280;35472;50.514;30.448;2022-09-28T04:04:35;98511.75;;;13.34;100.00
49567;BME280;35472;50.514;30.448;2022-09-28T04:07:00;98516.91;;;13.27;100.00
49567;BME280;35472;50.514;30.448;2022-09-28T04:09:26;98515.63;;;13.16;100.00
49567;BME280;35472;50.514;30.448;2022-09-28T04:11:53;98511.44;;;13.27;100.00
49567;BME280;35472;50.514;30.448;2022-09-28T04:14:18;98517.56;;;13.15;100.00
49567;BME280;35472;50.514;30.448;2022-09-28T04:16:44;98507.34;;;13.59;100.00
49567;BME280;35472;50.514;30.448;2022-09-28T04:19:14;98508.25;;;13.63;100.00
49567;BME280;35472;50.514;30.448;2022-09-28T04:22:18;98509.84;;;13.73;100.00
49567;BME280;35472;50.514;30.448;2022-09-28T04:24:43;98509.97;;;13.77;100.00
49567;BME280;35472;50.514;30.448;2022-09-28T04:27:09;98509.97;;;13.77;100.00
49567;BME280;35472;50.514;30.448;2022-09-28T04:29:53;98503.03;;;13.79;100.00
49567;BME280;35472;50.514;30.448;2022-09-28T04:32:18;98509.47;;;13.83;100.00
49567;BME280;35472;50.514;30.448;2022-09-28T04:34:43;98493.59;;;13.98;100.00
49567;BME280;35472;50.514;30.448;2022-09-28T04:37:09;98503.97;;;14.13;100.00
49567;BME280;35472;50.514;30.448;2022-09-28T04:39:36;98511.03;;;14.22;100.00
49567;BME280;35472;50.514;30.448;2022-09-28T04:42:02;98503.53;;;14.32;100.00
49567;BME280;35472;50.514;30.448;2022-09-28T04:44:27;98513.31;;;14.41;100.00
49567;BME280;35472;50.514;30.448;2022-09-28T04:47:00;98515.88;;;14.46;100.00
49567;BME280;35472;50.514;30.448;2022-09-28T04:49:28;98508.13;;;14.48;100.00
49567;BME280;35472;50.514;30.448;2022-09-28T04:52:04;98508.69;;;14.63;100.00
49567;BME280;35472;50.514;30.448;2022-09-28T04:54:31;98514.16;;;14.63;100.00
49567;BME280;35472;50.514;30.448;2022-09-28T04:56:57;98509.03;;;14.73;100.00
49567;BME280;35472;50.514;30.448;2022-09-28T04:59:23;98514.53;;;14.73;100.00
49567;BME280;35472;50.514;30.448;2022-09-28T05:01:48;98508.03;;;14.78;100.00
49567;BME280;35472;50.514;30.448;2022-09-28T05:04:19;98509.31;;;14.60;100.00
49567;BME280;35472;50.514;30.448;2022-09-28T05:07:05;98498.94;;;14.44;100.00
49567;BME280;35472;50.514;30.448;2022-09-28T05:09:31;98500.88;;;14.44;100.00
49567;BME280;35472;50.514;30.448;2022-09-28T05:11:56;98504.56;;;13.98;100.00
49567;BME280;35472;50.514;30.448;2022-09-28T05:14:23;98493.50;;;14.15;100.00
49567;BME280;35472;50.514;30.448;2022-09-28T05:16:50;98497.97;;;14.19;100.00
49567;BME280;35472;50.514;30.448;2022-09-28T05:19:24;98495.59;;;14.39;100.00
49567;BME280;35472;50.514;30.448;2022-09-28T05:21:51;98504.53;;;14.57;100.00
49567;BME280;35472;50.514;30.448;2022-09-28T05:24:16;98502.59;;;14.90;100.00
49567;BME280;35472;50.514;30.448;2022-09-28T05:26:47;98502.09;;;15.09;100.00
49567;BME280;35472;50.514;30.448;2022-09-28T05:29:12;98501.69;;;15.19;100.00
49567;BME280;35472;50.514;30.448;2022-09-28T05:32:01;98497.19;;;14.82;100.00
49567;BME280;35472;50.514;30.448;2022-09-28T05:34:42;98507.50;;;14.85;100.00
49567;BME280;35472;50.514;30.448;2022-09-28T05:37:12;98490.78;;;14.78;100.00
49567;BME280;35472;50.514;30.448;2022-09-28T05:39:38;98495.16;;;14.58;100.00
49567;BME280;35472;50.514;30.448;2022-09-28T05:42:03;98495.81;;;14.75;100.00
49567;BME280;35472;50.514;30.448;2022-09-28T05:44:29;98500.25;;;14.80;100.00
49567;BME280;35472;50.514;30.448;2022-09-28T05:46:55;98513.06;;;14.76;100.00
49567;BME280;35472;50.514;30.448;2022-09-28T05:49:21;98513.00;;;14.85;100.00
49567;BME280;35472;50.514;30.448;2022-09-28T05:51:47;98504.97;;;14.59;100.00
49567;BME280;35472;50.514;30.448;2022-09-28T05:54:12;98500.81;;;14.73;100.00
49567;BME280;35472;50.514;30.448;2022-09-28T05:56:41;98511.44;;;14.96;100.00
49567;BME280;35472;50.514;30.448;2022-09-28T05:59:07;98504.44;;;15.19;100.00
49567;BME280;35472;50.514;30.448;2022-09-28T06:01:34;98508.31;;;15.18;100.00
49567;BME280;35472;50.514;30.448;2022-09-28T06:04:00;98520.41;;;15.50;100.00
49567;BME280;35472;50.514;30.448;2022-09-28T06:06:26;98513.34;;;15.28;100.00
49567;BME280;35472;50.514;30.448;2022-09-28T06:08:51;98515.84;;;15.54;100.00
49567;BME280;35472;50.514;30.448;2022-09-28T06:11:30;98522.75;;;15.73;100.00
49567;BME280;35472;50.514;30.448;2022-09-28T06:13:57;98510.25;;;15.63;100.00
49567;BME280;35472;50.514;30.448;2022-09-28T06:16:28;98508.66;;;15.62;100.00
49567;BME280;35472;50.514;30.448;2022-09-28T06:18:53;98517.13;;;15.69;100.00
49567;BME280;35472;50.514;30.448;2022-09-28T06:21:34;98526.75;;;15.75;100.00
49567;BME280;35472;50.514;30.448;2022-09-28T06:24:00;98523.66;;;15.77;100.00
49567;BME280;35472;50.514;30.448;2022-09-28T06:26:26;98518.75;;;15.82;100.00
49567;BME280;35472;50.514;30.448;2022-09-28T06:28:52;98521.84;;;15.81;100.00
49567;BME280;35472;50.514;30.448;2022-09-28T06:31:17;98515.63;;;15.60;100.00
49567;BME280;35472;50.514;30.448;2022-09-28T06:33:48;98507.75;;;15.70;100.00
49567;BME280;35472;50.514;30.448;2022-09-28T06:36:16;98515.09;;;15.33;100.00
49567;BME280;35472;50.514;30.448;2022-09-28T06:38:42;98511.50;;;15.53;100.00
49567;BME280;35472;50.514;30.448;2022-09-28T06:41:08;98506.00;;;15.53;100.00
49567;BME280;35472;50.514;30.448;2022-09-28T06:43:40;98503.97;;;15.75;100.00
49567;BME280;35472;50.514;30.448;2022-09-28T06:46:11;98500.72;;;15.61;100.00
49567;BME280;35472;50.514;30.448;2022-09-28T06:48:38;98488.28;;;15.75;100.00
49567;BME280;35472;50.514;30.448;2022-09-28T06:51:06;98479.69;;;15.77;100.00
49567;BME280;35472;50.514;30.448;2022-09-28T06:53:37;98479.81;;;15.80;100.00
49567;BME280;35472;50.514;30.448;2022-09-28T06:56:19;98492.03;;;15.95;100.00
49567;BME280;35472;50.514;30.448;2022-09-28T06:58:45;98476.03;;;15.85;100.00
49567;BME280;35472;50.514;30.448;2022-09-28T07:01:11;98475.44;;;15.79;100.00
49567;BME280;35472;50.514;30.448;2022-09-28T07:03:45;98481.75;;;15.22;100.00
49567;BME280;35472;50.514;30.448;2022-09-28T07:06:46;98484.06;;;15.66;100.00
49567;BME280;35472;50.514;30.448;2022-09-28T07:09:47;98476.56;;;16.27;100.00
49567;BME280;35472;50.514;30.448;2022-09-28T07:12:28;98476.22;;;16.69;100.00
49567;BME280;35472;50.514;30.448;2022-09-28T07:15:14;98487.75;;;16.87;100.00
49567;BME280;35472;50.514;30.448;2022-09-28T07:17:39;98479.56;;;16.75;100.00
49567;BME280;35472;50.514;30.448;2022-09-28T07:20:05;98479.47;;;17.15;100.00
49567;BME280;35472;50.514;30.448;2022-09-28T07:22:30;98485.78;;;16.47;100.00
49567;BME280;35472;50.514;30.448;2022-09-28T07:24:56;98484.94;;;15.82;100.00
49567;BME280;35472;50.514;30.448;2022-09-28T07:27:44;98486.19;;;16.33;100.00
49567;BME280;35472;50.514;30.448;2022-09-28T07:30:32;98484.91;;;16.19;100.00
49567;BME280;35472;50.514;30.448;2022-09-28T07:33:07;98484.16;;;15.94;100.00
49567;BME280;35472;50.514;30.448;2022-09-28T07:35:55;98489.06;;;16.13;100.00
49567;BME280;35472;50.514;30.448;2022-09-28T07:38:27;98474.66;;;15.91;100.00
49567;BME280;35472;50.514;30.448;2022-09-28T07:40:55;98468.81;;;15.68;100.00
49567;BME280;35472;50.514;30.448;2022-09-28T07:43:39;98473.28;;;15.73;100.00
49567;BME280;35472;50.514;30.448;2022-09-28T07:46:06;98478.44;;;15.87;100.00
49567;BME280;35472;50.514;30.448;2022-09-28T07:48:39;98482.16;;;15.57;100.00
49567;BME280;35472;50.514;30.448;2022-09-28T07:51:13;98481.97;;;15.63;100.00
49567;BME280;35472;50.514;30.448;2022-09-28T07:53:55;98481.81;;;15.59;100.00
49567;BME280;35472;50.514;30.448;2022-09-28T07:56:32;98475.50;;;15.46;100.00
49567;BME280;35472;50.514;30.448;2022-09-28T07:59:03;98480.25;;;15.13;100.00
49567;BME280;35472;50.514;30.448;2022-09-28T08:01:38;98485.72;;;15.00;100.00
49567;BME280;35472;50.514;30.448;2022-09-28T08:04:04;98482.31;;;15.16;100.00
49567;BME280;35472;50.514;30.448;2022-09-28T08:06:31;98487.66;;;15.57;100.00
49567;BME280;35472;50.514;30.448;2022-09-28T08:08:56;98480.91;;;15.43;100.00
49567;BME280;35472;50.514;30.448;2022-09-28T08:11:35;98473.56;;;15.59;100.00
49567;BME280;35472;50.514;30.448;2022-09-28T08:14:24;98472.00;;;15.82;100.00
49567;BME280;35472;50.514;30.448;2022-09-28T08:17:20;98474.88;;;15.98;100.00
49567;BME280;35472;50.514;30.448;2022-09-28T08:19:48;98485.06;;;15.73;100.00
49567;BME280;35472;50.514;30.448;2022-09-28T08:22:33;98479.41;;;16.31;100.00
49567;BME280;35472;50.514;30.448;2022-09-28T08:24:59;98471.75;;;16.65;100.00
49567;BME280;35472;50.514;30.448;2022-09-28T08:27:24;98469.94;;;16.56;100.00
49567;BME280;35472;50.514;30.448;2022-09-28T08:29:50;98483.25;;;16.95;100.00
49567;BME280;35472;50.514;30.448;2022-09-28T08:32:36;98490.88;;;17.45;100.00
49567;BME280;35472;50.514;30.448;2022-09-28T08:35:19;98474.19;;;17.54;100.00
49567;BME280;35472;50.514;30.448;2022-09-28T08:38:08;98483.75;;;17.28;100.00
49567;BME280;35472;50.514;30.448;2022-09-28T08:41:16;98485.38;;;17.77;100.00
49567;BME280;35472;50.514;30.448;2022-09-28T08:46:43;98479.66;;;17.22;100.00
49567;BME280;35472;50.514;30.448;2022-09-28T08:49:42;98472.97;;;17.07;100.00
49567;BME280;35472;50.514;30.448;2022-09-28T08:52:32;98476.31;;;17.01;100.00
49567;BME280;35472;50.514;30.448;2022-09-28T08:55:36;98470.84;;;17.16;100.00
49567;BME280;35472;50.514;30.448;2022-09-28T08:58:23;98470.72;;;16.69;100.00
49567;BME280;35472;50.514;30.448;2022-09-28T09:00:53;98473.22;;;17.02;100.00
49567;BME280;35472;50.514;30.448;2022-09-28T09:03:33;98478.69;;;17.46;100.00
49567;BME280;35472;50.514;30.448;2022-09-28T09:06:25;98459.81;;;17.16;100.00
49567;BME280;35472;50.514;30.448;2022-09-28T09:12:09;98464.66;;;16.92;100.00
49567;BME280;35472;50.514;30.448;2022-09-28T09:26:08;98470.47;;;17.78;97.02
49567;BME280;35472;50.514;30.448;2022-09-28T09:38:10;98466.50;;;18.10;96.02
49567;BME280;35472;50.514;30.448;2022-09-28T09:46:59;98457.91;;;18.51;93.33
49567;BME280;35472;50.514;30.448;2022-09-28T09:49:53;98460.19;;;18.84;94.34
49567;BME280;35472;50.514;30.448;2022-09-28T09:52:25;98466.03;;;19.21;91.74
49567;BME280;35472;50.514;30.448;2022-09-28T09:57:44;98457.97;;;18.54;91.37
49567;BME280;35472;50.514;30.448;2022-09-28T10:00:27;98468.78;;;18.43;91.38
49567;BME280;35472;50.514;30.448;2022-09-28T10:03:05;98453.34;;;18.58;91.07
49567;BME280;35472;50.514;30.448;2022-09-28T10:05:41;98469.06;;;18.73;91.90
49567;BME280;35472;50.514;30.448;2022-09-28T10:08:14;98481.34;;;18.06;94.86
49567;BME280;35472;50.514;30.448;2022-09-28T10:10:52;98461.03;;;18.14;95.34
49567;BME280;35472;50.514;30.448;2022-09-28T10:13:19;98467.59;;;18.25;95.78
49567;BME280;35472;50.514;30.448;2022-09-28T10:15:45;98462.53;;;18.27;93.74
49567;BME280;35472;50.514;30.448;2022-09-28T10:18:22;98468.13;;;18.31;95.91
49567;BME280;35472;50.514;30.448;2022-09-28T10:21:12;98465.63;;;18.26;95.28
49567;BME280;35472;50.514;30.448;2022-09-28T10:23:54;98465.03;;;18.52;94.23
49567;BME280;35472;50.514;30.448;2022-09-28T10:26:24;98455.63;;;18.37;94.44
49567;BME280;35472;50.514;30.448;2022-09-28T10:29:01;98464.84;;;17.74;96.25
49567;BME280;35472;50.514;30.448;2022-09-28T10:31:48;98460.31;;;17.82;97.00
49567;BME280;35472;50.514;30.448;2022-09-28T10:34:28;98459.44;;;17.78;98.29
49567;BME280;35472;50.514;30.448;2022-09-28T10:37:01;98468.19;;;17.99;95.85
49567;BME280;35472;50.514;30.448;2022-09-28T10:39:50;98471.91;;;17.72;98.24
49567;BME280;35472;50.514;30.448;2022-09-28T10:42:32;98479.50;;;17.62;98.04
49567;BME280;35472;50.514;30.448;2022-09-28T10:45:22;98477.09;;;17.29;100.00
49567;BME280;35472;50.514;30.448;2022-09-28T10:47:48;98470.97;;;17.67;99.40
49567;BME280;35472;50.514;30.448;2022-09-28T10:50:25;98470.53;;;17.50;100.00
49567;BME280;35472;50.514;30.448;2022-09-28T10:53:21;98469.16;;;17.12;100.00
49567;BME280;35472;50.514;30.448;2022-09-28T10:56:04;98467.66;;;17.30;100.00
49567;BME280;35472;50.514;30.448;2022-09-28T10:58:38;98465.31;;;17.01;100.00
49567;BME280;35472;50.514;30.448;2022-09-28T11:01:15;98464.84;;;17.42;100.00
49567;BME280;35472;50.514;30.448;2022-09-28T11:04:03;98461.72;;;17.91;98.27
49567;BME280;35472;50.514;30.448;2022-09-28T11:06:35;98469.63;;;17.77;98.26
49567;BME280;35472;50.514;30.448;2022-09-28T11:09:05;98469.47;;;17.54;100.00
49567;BME280;35472;50.514;30.448;2022-09-28T11:11:41;98465.88;;;17.38;100.00
49567;BME280;35472;50.514;30.448;2022-09-28T11:17:19;98472.69;;;17.72;99.78
49567;BME280;35472;50.514;30.448;2022-09-28T11:19:48;98463.31;;;17.45;100.00
49567;BME280;35472;50.514;30.448;2022-09-28T11:24:51;98461.72;;;17.44;100.00
49567;BME280;35472;50.514;30.448;2022-09-28T11:27:36;98460.91;;;17.43;100.00
49567;BME280;35472;50.514;30.448;2022-09-28T11:30:02;98456.22;;;17.60;100.00
49567;BME280;35472;50.514;30.448;2022-09-28T11:32:41;98451.97;;;17.78;100.00
49567;BME280;35472;50.514;30.448;2022-09-28T11:41:55;98452.66;;;17.91;100.00
49567;BME280;35472;50.514;30.448;2022-09-28T11:50:21;98463.53;;;17.84;100.00
49567;BME280;35472;50.514;30.448;2022-09-28T11:53:03;98465.19;;;17.57;100.00
49567;BME280;35472;50.514;30.448;2022-09-28T11:55:40;98462.16;;;17.93;100.00
49567;BME280;35472;50.514;30.448;2022-09-28T11:58:16;98462.44;;;17.57;100.00
49567;BME280;35472;50.514;30.448;2022-09-28T12:00:54;98473.28;;;17.81;100.00
49567;BME280;35472;50.514;30.448;2022-09-28T12:03:40;98470.41;;;17.46;100.00
49567;BME280;35472;50.514;30.448;2022-09-28T12:06:15;98468.63;;;17.22;100.00
49567;BME280;35472;50.514;30.448;2022-09-28T12:08:49;98477.28;;;17.52;100.00
49567;BME280;35472;50.514;30.448;2022-09-28T12:11:31;98473.50;;;17.73;100.00
49567;BME280;35472;50.514;30.448;2022-09-28T12:14:33;98471.16;;;17.75;100.00
49567;BME280;35472;50.514;30.448;2022-09-28T12:17:04;98476.09;;;17.53;100.00
49567;BME280;35472;50.514;30.448;2022-09-28T12:19:43;98463.75;;;17.63;100.00
49567;BME280;35472;50.514;30.448;2022-09-28T12:22:34;98451.91;;;17.47;100.00
49567;BME280;35472;50.514;30.448;2022-09-28T12:25:02;98447.50;;;17.74;100.00
49567;BME280;35472;50.514;30.448;2022-09-28T12:27:36;98444.81;;;17.77;100.00
49567;BME280;35472;50.514;30.448;2022-09-28T12:30:18;98452.47;;;18.19;100.00
49567;BME280;35472;50.514;30.448;2022-09-28T12:32:49;98447.81;;;18.04;100.00
49567;BME280;35472;50.514;30.448;2022-09-28T12:38:34;98460.84;;;17.56;100.00
49567;BME280;35472;50.514;30.448;2022-09-28T12:41:23;98465.97;;;17.57;100.00
49567;BME280;35472;50.514;30.448;2022-09-28T12:44:22;98462.22;;;17.18;100.00
49567;BME280;35472;50.514;30.448;2022-09-28T12:51:54;98465.88;;;16.78;100.00
49567;BME280;35472;50.514;30.448;2022-09-28T13:02:22;98471.72;;;17.05;100.00
49567;BME280;35472;50.514;30.448;2022-09-28T13:13:19;98461.63;;;16.81;100.00
49567;BME280;35472;50.514;30.448;2022-09-28T13:18:42;98457.78;;;16.85;100.00
49567;BME280;35472;50.514;30.448;2022-09-28T13:21:17;98453.56;;;16.88;100.00
49567;BME280;35472;50.514;30.448;2022-09-28T13:23:48;98454.53;;;16.96;100.00
49567;BME280;35472;50.514;30.448;2022-09-28T13:26:27;98453.63;;;16.92;100.00
49567;BME280;35472;50.514;30.448;2022-09-28T13:28:59;98453.34;;;17.40;100.00
49567;BME280;35472;50.514;30.448;2022-09-28T13:31:30;98456.53;;;17.27;100.00
49567;BME280;35472;50.514;30.448;2022-09-28T13:33:58;98462.50;;;17.29;100.00
49567;BME280;35472;50.514;30.448;2022-09-28T13:38:58;98460.97;;;17.15;100.00
49567;BME280;35472;50.514;30.448;2022-09-28T13:41:32;98462.13;;;17.14;100.00
49567;BME280;35472;50.514;30.448;2022-09-28T13:44:16;98466.94;;;17.18;100.00
49567;BME280;35472;50.514;30.448;2022-09-28T13:57:42;98467.97;;;17.73;100.00
49567;BME280;35472;50.514;30.448;2022-09-28T14:03:10;98478.72;;;17.62;100.00
49567;BME280;35472;50.514;30.448;2022-09-28T14:05:46;98477.00;;;17.57;100.00
49567;BME280;35472;50.514;30.448;2022-09-28T14:16:39;98469.34;;;17.35;100.00
49567;BME280;35472;50.514;30.448;2022-09-28T14:27:03;98467.56;;;17.27;100.00
49567;BME280;35472;50.514;30.448;2022-09-28T14:29:36;98477.56;;;17.03;100.00
49567;BME280;35472;50.514;30.448;2022-09-28T14:32:23;98478.72;;;16.74;100.00
49567;BME280;35472;50.514;30.448;2022-09-28T14:35:00;98474.06;;;16.62;100.00
49567;BME280;35472;50.514;30.448;2022-09-28T14:37:34;98476.28;;;16.45;100.00
49567;BME280;35472;50.514;30.448;2022-09-28T14:40:22;98482.16;;;16.31;100.00
49567;BME280;35472;50.514;30.448;2022-09-28T14:56:42;98493.41;;;15.77;100.00
49567;BME280;35472;50.514;30.448;2022-09-28T14:59:16;98491.00;;;16.12;100.00
49567;BME280;35472;50.514;30.448;2022-09-28T15:01:49;98505.34;;;15.93;100.00
49567;BME280;35472;50.514;30.448;2022-09-28T15:04:15;98509.69;;;16.06;100.00
49567;BME280;35472;50.514;30.448;2022-09-28T15:06:46;98505.25;;;16.14;100.00
49567;BME280;35472;50.514;30.448;2022-09-28T15:11:59;98503.72;;;16.17;100.00
49567;BME280;35472;50.514;30.448;2022-09-28T15:14:26;98515.53;;;16.17;100.00
49567;BME280;35472;50.514;30.448;2022-09-28T15:16:57;98513.50;;;16.14;100.00
49567;BME280;35472;50.514;30.448;2022-09-28T15:20:46;98513.16;;;16.03;100.00
49567;BME280;35472;50.514;30.448;2022-09-28T15:22:45;98524.94;;;16.28;100.00
49567;BME280;35472;50.514;30.448;2022-09-28T15:25:14;98532.38;;;16.40;100.00
49567;BME280;35472;50.514;30.448;2022-09-28T15:27:40;98533.16;;;16.53;100.00
49567;BME280;35472;50.514;30.448;2022-09-28T15:30:29;98528.59;;;16.32;100.00
49567;BME280;35472;50.514;30.448;2022-09-28T15:32:57;98535.72;;;15.97;100.00
49567;BME280;35472;50.514;30.448;2022-09-28T15:35:58;98539.84;;;15.91;100.00
49567;BME280;35472;50.514;30.448;2022-09-28T15:38:26;98532.59;;;16.35;100.00
49567;BME280;35472;50.514;30.448;2022-09-28T15:40:53;98543.84;;;16.18;100.00
49567;BME280;35472;50.514;30.448;2022-09-28T15:45:56;98555.41;;;16.48;100.00
49567;BME280;35472;50.514;30.448;2022-09-28T15:48:54;98554.03;;;16.29;100.00
49567;BME280;35472;50.514;30.448;2022-09-28T15:51:24;98558.38;;;15.69;100.00